sensor_id;sensor_type;location;lat;lon;timestamp;P1;durP1;ratioP1;P2;durP2;ratioP2
66212;SDS011;53015;50.046;8.238;2023-02-15T00:01:55;51.28;;;19.23;;
66212;SDS011;53015;50.046;8.238;2023-02-15T00:04:21;59.72;;;19.35;;
66212;SDS011;53015;50.046;8.238;2023-02-15T00:06:48;62.42;;;20.25;;
66212;SDS011;53015;50.046;8.238;2023-02-15T00:09:13;62.13;;;20.40;;
66212;SDS011;53015;50.046;8.238;2023-02-15T00:11:39;52.50;;;18.27;;
66212;SDS011;53015;50.046;8.238;2023-02-15T00:14:06;54.42;;;18.85;;
66212;SDS011;53015;50.046;8.238;2023-02-15T00:16:33;53.05;;;19.02;;
66212;SDS011;53015;50.046;8.238;2023-02-15T00:18:59;53.33;;;18.38;;
66212;SDS011;53015;50.046;8.238;2023-02-15T00:21:25;86.05;;;19.65;;
66212;SDS011;53015;50.046;8.238;2023-02-15T00:23:50;62.35;;;20.10;;
66212;SDS011;53015;50.046;8.238;2023-02-15T00:26:16;50.78;;;19.20;;
66212;SDS011;53015;50.046;8.238;2023-02-15T00:28:41;55.53;;;19.05;;
66212;SDS011;53015;50.046;8.238;2023-02-15T00:31:08;53.97;;;19.10;;
66212;SDS011;53015;50.046;8.238;2023-02-15T00:33:35;54.90;;;19.83;;
66212;SDS011;53015;50.046;8.238;2023-02-15T00:36:02;52.67;;;20.00;;
66212;SDS011;53015;50.046;8.238;2023-02-15T00:38:29;50.72;;;18.98;;
66212;SDS011;53015;50.046;8.238;2023-02-15T00:40:55;50.53;;;19.20;;
66212;SDS011;53015;50.046;8.238;2023-02-15T00:43:22;47.00;;;17.83;;
66212;SDS011;53015;50.046;8.238;2023-02-15T00:45:47;52.33;;;19.83;;
66212;SDS011;53015;50.046;8.238;2023-02-15T00:48:13;70.85;;;20.80;;
66212;SDS011;53015;50.046;8.238;2023-02-15T00:50:39;57.03;;;18.77;;
66212;SDS011;53015;50.046;8.238;2023-02-15T00:53:05;90.88;;;19.52;;
66212;SDS011;53015;50.046;8.238;2023-02-15T00:55:30;54.75;;;18.90;;
66212;SDS011;53015;50.046;8.238;2023-02-15T00:57:56;62.67;;;19.35;;
66212;SDS011;53015;50.046;8.238;2023-02-15T01:00:21;65.00;;;20.92;;
66212;SDS011;53015;50.046;8.238;2023-02-15T01:02:47;74.28;;;21.35;;
66212;SDS011;53015;50.046;8.238;2023-02-15T01:05:13;66.65;;;20.92;;
66212;SDS011;53015;50.046;8.238;2023-02-15T01:07:39;61.22;;;20.23;;
66212;SDS011;53015;50.046;8.238;2023-02-15T01:10:05;76.75;;;20.08;;
66212;SDS011;53015;50.046;8.238;2023-02-15T01:12:32;73.28;;;21.50;;
66212;SDS011;53015;50.046;8.238;2023-02-15T01:14:57;66.53;;;20.63;;
66212;SDS011;53015;50.046;8.238;2023-02-15T01:17:23;74.50;;;21.75;;
66212;SDS011;53015;50.046;8.238;2023-02-15T01:19:48;65.50;;;21.98;;
66212;SDS011;53015;50.046;8.238;2023-02-15T01:22:14;61.88;;;20.63;;
66212;SDS011;53015;50.046;8.238;2023-02-15T01:24:40;67.35;;;20.33;;
66212;SDS011;53015;50.046;8.238;2023-02-15T01:27:05;60.00;;;20.42;;
66212;SDS011;53015;50.046;8.238;2023-02-15T01:29:31;70.70;;;21.17;;
66212;SDS011;53015;50.046;8.238;2023-02-15T01:31:57;68.68;;;21.83;;
66212;SDS011;53015;50.046;8.238;2023-02-15T01:34:22;82.63;;;22.50;;
66212;SDS011;53015;50.046;8.238;2023-02-15T01:36:48;106.57;;;23.48;;
66212;SDS011;53015;50.046;8.238;2023-02-15T01:39:13;78.45;;;22.75;;
66212;SDS011;53015;50.046;8.238;2023-02-15T01:41:39;80.20;;;22.75;;
66212;SDS011;53015;50.046;8.238;2023-02-15T01:47:00;78.13;;;21.58;;
66212;SDS011;53015;50.046;8.238;2023-02-15T01:49:25;75.68;;;21.95;;
66212;SDS011;53015;50.046;8.238;2023-02-15T01:51:52;66.95;;;22.45;;
66212;SDS011;53015;50.046;8.238;2023-02-15T01:54:19;108.65;;;23.70;;
66212;SDS011;53015;50.046;8.238;2023-02-15T01:56:47;78.28;;;24.13;;
66212;SDS011;53015;50.046;8.238;2023-02-15T01:59:14;78.70;;;24.55;;
66212;SDS011;53015;50.046;8.238;2023-02-15T02:01:43;77.90;;;22.33;;
66212;SDS011;53015;50.046;8.238;2023-02-15T02:04:11;80.10;;;24.02;;
66212;SDS011;53015;50.046;8.238;2023-02-15T02:06:42;80.10;;;23.95;;
66212;SDS011;53015;50.046;8.238;2023-02-15T02:09:10;77.57;;;23.63;;
66212;SDS011;53015;50.046;8.238;2023-02-15T02:11:35;76.70;;;23.38;;
66212;SDS011;53015;50.046;8.238;2023-02-15T02:14:04;79.75;;;23.42;;
66212;SDS011;53015;50.046;8.238;2023-02-15T02:16:32;79.07;;;23.30;;
66212;SDS011;53015;50.046;8.238;2023-02-15T02:19:14;70.85;;;22.20;;
66212;SDS011;53015;50.046;8.238;2023-02-15T02:22:09;76.40;;;23.83;;
66212;SDS011;53015;50.046;8.238;2023-02-15T02:28:04;92.95;;;24.80;;
66212;SDS011;53015;50.046;8.238;2023-02-15T02:31:00;76.25;;;22.35;;
66212;SDS011;53015;50.046;8.238;2023-02-15T02:33:49;99.10;;;24.55;;
66212;SDS011;53015;50.046;8.238;2023-02-15T02:36:24;91.38;;;25.58;;
66212;SDS011;53015;50.046;8.238;2023-02-15T02:39:00;81.32;;;25.02;;
66212;SDS011;53015;50.046;8.238;2023-02-15T02:41:33;74.57;;;22.90;;
66212;SDS011;53015;50.046;8.238;2023-02-15T02:44:07;93.53;;;23.80;;
66212;SDS011;53015;50.046;8.238;2023-02-15T02:46:39;82.07;;;23.90;;
66212;SDS011;53015;50.046;8.238;2023-02-15T02:49:12;69.40;;;23.48;;
66212;SDS011;53015;50.046;8.238;2023-02-15T02:51:37;69.40;;;22.75;;
66212;SDS011;53015;50.046;8.238;2023-02-15T02:54:04;71.63;;;21.95;;
66212;SDS011;53015;50.046;8.238;2023-02-15T02:56:32;72.75;;;24.38;;
66212;SDS011;53015;50.046;8.238;2023-02-15T02:59:02;77.95;;;22.98;;
66212;SDS011;53015;50.046;8.238;2023-02-15T03:01:33;66.25;;;21.27;;
66212;SDS011;53015;50.046;8.238;2023-02-15T03:04:03;75.68;;;23.08;;
66212;SDS011;53015;50.046;8.238;2023-02-15T03:06:33;64.20;;;21.65;;
66212;SDS011;53015;50.046;8.238;2023-02-15T03:09:06;63.25;;;21.73;;
66212;SDS011;53015;50.046;8.238;2023-02-15T03:11:34;67.70;;;21.52;;
66212;SDS011;53015;50.046;8.238;2023-02-15T03:14:00;69.70;;;23.05;;
66212;SDS011;53015;50.046;8.238;2023-02-15T03:16:26;69.85;;;21.98;;
66212;SDS011;53015;50.046;8.238;2023-02-15T03:18:53;100.45;;;23.88;;
66212;SDS011;53015;50.046;8.238;2023-02-15T03:21:24;72.70;;;23.25;;
66212;SDS011;53015;50.046;8.238;2023-02-15T03:23:56;87.18;;;23.25;;
66212;SDS011;53015;50.046;8.238;2023-02-15T03:26:25;94.63;;;25.00;;
66212;SDS011;53015;50.046;8.238;2023-02-15T03:28:53;76.60;;;23.45;;
66212;SDS011;53015;50.046;8.238;2023-02-15T03:31:22;95.93;;;24.27;;
66212;SDS011;53015;50.046;8.238;2023-02-15T03:33:51;106.70;;;23.35;;
66212;SDS011;53015;50.046;8.238;2023-02-15T03:36:20;93.15;;;24.15;;
66212;SDS011;53015;50.046;8.238;2023-02-15T03:38:51;87.43;;;23.98;;
66212;SDS011;53015;50.046;8.238;2023-02-15T03:41:22;91.72;;;25.08;;
66212;SDS011;53015;50.046;8.238;2023-02-15T03:43:52;91.20;;;25.05;;
66212;SDS011;53015;50.046;8.238;2023-02-15T03:46:21;100.07;;;26.42;;
66212;SDS011;53015;50.046;8.238;2023-02-15T03:48:50;97.50;;;24.75;;
66212;SDS011;53015;50.046;8.238;2023-02-15T03:51:18;101.30;;;25.92;;
66212;SDS011;53015;50.046;8.238;2023-02-15T03:53:46;84.72;;;24.13;;
66212;SDS011;53015;50.046;8.238;2023-02-15T03:56:14;82.25;;;24.83;;
66212;SDS011;53015;50.046;8.238;2023-02-15T03:58:40;73.88;;;23.20;;
66212;SDS011;53015;50.046;8.238;2023-02-15T04:01:10;64.50;;;22.05;;
66212;SDS011;53015;50.046;8.238;2023-02-15T04:03:39;67.90;;;21.23;;
66212;SDS011;53015;50.046;8.238;2023-02-15T04:06:07;62.97;;;21.27;;
66212;SDS011;53015;50.046;8.238;2023-02-15T04:08:33;60.00;;;20.48;;
66212;SDS011;53015;50.046;8.238;2023-02-15T04:10:58;53.17;;;19.00;;
66212;SDS011;53015;50.046;8.238;2023-02-15T04:13:29;58.67;;;20.23;;
66212;SDS011;53015;50.046;8.238;2023-02-15T04:15:56;62.55;;;20.73;;
66212;SDS011;53015;50.046;8.238;2023-02-15T04:18:22;53.05;;;19.90;;
66212;SDS011;53015;50.046;8.238;2023-02-15T04:20:48;62.50;;;21.50;;
66212;SDS011;53015;50.046;8.238;2023-02-15T04:23:13;59.15;;;20.77;;
66212;SDS011;53015;50.046;8.238;2023-02-15T04:25:39;58.25;;;20.92;;
66212;SDS011;53015;50.046;8.238;2023-02-15T04:28:04;60.30;;;21.15;;
66212;SDS011;53015;50.046;8.238;2023-02-15T04:30:30;64.00;;;21.88;;
66212;SDS011;53015;50.046;8.238;2023-02-15T04:32:56;66.18;;;22.50;;
66212;SDS011;53015;50.046;8.238;2023-02-15T04:35:21;58.22;;;20.67;;
66212;SDS011;53015;50.046;8.238;2023-02-15T04:37:47;56.13;;;21.00;;
66212;SDS011;53015;50.046;8.238;2023-02-15T04:40:13;52.55;;;20.20;;
66212;SDS011;53015;50.046;8.238;2023-02-15T04:42:39;49.42;;;18.58;;
66212;SDS011;53015;50.046;8.238;2023-02-15T04:45:05;50.38;;;18.52;;
66212;SDS011;53015;50.046;8.238;2023-02-15T04:47:31;48.30;;;19.20;;
66212;SDS011;53015;50.046;8.238;2023-02-15T04:49:57;46.67;;;17.48;;
66212;SDS011;53015;50.046;8.238;2023-02-15T04:52:23;50.92;;;19.40;;
66212;SDS011;53015;50.046;8.238;2023-02-15T04:54:48;51.90;;;19.73;;
66212;SDS011;53015;50.046;8.238;2023-02-15T04:57:14;47.85;;;19.75;;
66212;SDS011;53015;50.046;8.238;2023-02-15T04:59:39;51.10;;;20.45;;
66212;SDS011;53015;50.046;8.238;2023-02-15T05:02:05;53.63;;;20.33;;
66212;SDS011;53015;50.046;8.238;2023-02-15T05:04:30;50.58;;;19.35;;
66212;SDS011;53015;50.046;8.238;2023-02-15T05:06:57;60.15;;;21.45;;
66212;SDS011;53015;50.046;8.238;2023-02-15T05:09:22;60.58;;;21.58;;
66212;SDS011;53015;50.046;8.238;2023-02-15T05:11:48;59.00;;;22.33;;
66212;SDS011;53015;50.046;8.238;2023-02-15T05:14:13;52.60;;;20.30;;
66212;SDS011;53015;50.046;8.238;2023-02-15T05:16:39;50.92;;;20.10;;
66212;SDS011;53015;50.046;8.238;2023-02-15T05:19:04;52.63;;;19.65;;
66212;SDS011;53015;50.046;8.238;2023-02-15T05:21:31;51.00;;;19.83;;
66212;SDS011;53015;50.046;8.238;2023-02-15T05:23:58;57.22;;;21.13;;
66212;SDS011;53015;50.046;8.238;2023-02-15T05:26:24;49.97;;;19.45;;
66212;SDS011;53015;50.046;8.238;2023-02-15T05:28:50;54.53;;;20.95;;
66212;SDS011;53015;50.046;8.238;2023-02-15T05:31:16;46.88;;;18.85;;
66212;SDS011;53015;50.046;8.238;2023-02-15T05:33:43;52.97;;;21.58;;
66212;SDS011;53015;50.046;8.238;2023-02-15T05:36:09;58.00;;;21.73;;
66212;SDS011;53015;50.046;8.238;2023-02-15T05:38:37;50.72;;;20.90;;
66212;SDS011;53015;50.046;8.238;2023-02-15T05:41:04;59.15;;;21.20;;
66212;SDS011;53015;50.046;8.238;2023-02-15T05:43:29;52.45;;;20.65;;
66212;SDS011;53015;50.046;8.238;2023-02-15T05:45:56;52.20;;;20.85;;
66212;SDS011;53015;50.046;8.238;2023-02-15T05:48:22;55.50;;;20.58;;
66212;SDS011;53015;50.046;8.238;2023-02-15T05:50:56;51.13;;;20.90;;
66212;SDS011;53015;50.046;8.238;2023-02-15T05:53:23;47.72;;;18.63;;
66212;SDS011;53015;50.046;8.238;2023-02-15T05:55:48;59.15;;;22.95;;
66212;SDS011;53015;50.046;8.238;2023-02-15T05:58:14;63.03;;;20.75;;
66212;SDS011;53015;50.046;8.238;2023-02-15T06:00:45;56.75;;;21.10;;
66212;SDS011;53015;50.046;8.238;2023-02-15T06:03:11;53.45;;;21.48;;
66212;SDS011;53015;50.046;8.238;2023-02-15T06:05:37;61.55;;;22.42;;
66212;SDS011;53015;50.046;8.238;2023-02-15T06:08:02;54.88;;;21.00;;
66212;SDS011;53015;50.046;8.238;2023-02-15T06:10:28;50.55;;;19.73;;
66212;SDS011;53015;50.046;8.238;2023-02-15T06:12:53;52.97;;;19.85;;
66212;SDS011;53015;50.046;8.238;2023-02-15T06:15:19;50.85;;;20.35;;
66212;SDS011;53015;50.046;8.238;2023-02-15T06:17:45;53.17;;;18.42;;
66212;SDS011;53015;50.046;8.238;2023-02-15T06:20:11;62.63;;;20.67;;
66212;SDS011;53015;50.046;8.238;2023-02-15T06:22:37;56.95;;;20.42;;
66212;SDS011;53015;50.046;8.238;2023-02-15T06:25:03;53.65;;;19.50;;
66212;SDS011;53015;50.046;8.238;2023-02-15T06:27:29;55.05;;;20.23;;
66212;SDS011;53015;50.046;8.238;2023-02-15T06:29:54;55.85;;;20.25;;
66212;SDS011;53015;50.046;8.238;2023-02-15T06:32:20;52.35;;;20.23;;
66212;SDS011;53015;50.046;8.238;2023-02-15T06:34:46;48.72;;;18.70;;
66212;SDS011;53015;50.046;8.238;2023-02-15T06:37:11;47.35;;;18.40;;
66212;SDS011;53015;50.046;8.238;2023-02-15T06:39:37;51.08;;;19.20;;
66212;SDS011;53015;50.046;8.238;2023-02-15T06:42:02;49.80;;;18.05;;
66212;SDS011;53015;50.046;8.238;2023-02-15T06:44:28;45.20;;;17.38;;
66212;SDS011;53015;50.046;8.238;2023-02-15T06:46:53;46.67;;;18.25;;
66212;SDS011;53015;50.046;8.238;2023-02-15T06:49:19;42.17;;;17.30;;
66212;SDS011;53015;50.046;8.238;2023-02-15T06:51:45;43.20;;;16.42;;
66212;SDS011;53015;50.046;8.238;2023-02-15T06:54:10;43.88;;;16.00;;
66212;SDS011;53015;50.046;8.238;2023-02-15T06:56:37;39.58;;;15.23;;
66212;SDS011;53015;50.046;8.238;2023-02-15T06:59:02;38.58;;;16.00;;
66212;SDS011;53015;50.046;8.238;2023-02-15T07:01:28;34.13;;;14.48;;
66212;SDS011;53015;50.046;8.238;2023-02-15T07:03:53;31.77;;;13.93;;
66212;SDS011;53015;50.046;8.238;2023-02-15T07:06:19;32.83;;;13.40;;
66212;SDS011;53015;50.046;8.238;2023-02-15T07:08:45;29.23;;;12.75;;
66212;SDS011;53015;50.046;8.238;2023-02-15T07:11:10;30.75;;;13.65;;
66212;SDS011;53015;50.046;8.238;2023-02-15T07:13:35;30.77;;;12.43;;
66212;SDS011;53015;50.046;8.238;2023-02-15T07:16:01;26.35;;;12.10;;
66212;SDS011;53015;50.046;8.238;2023-02-15T07:18:26;26.83;;;11.82;;
66212;SDS011;53015;50.046;8.238;2023-02-15T07:20:52;32.22;;;12.68;;
66212;SDS011;53015;50.046;8.238;2023-02-15T07:23:18;28.25;;;11.45;;
66212;SDS011;53015;50.046;8.238;2023-02-15T07:25:44;28.48;;;12.15;;
66212;SDS011;53015;50.046;8.238;2023-02-15T07:28:09;28.00;;;11.63;;
66212;SDS011;53015;50.046;8.238;2023-02-15T07:30:35;24.80;;;11.30;;
66212;SDS011;53015;50.046;8.238;2023-02-15T07:33:00;25.25;;;11.40;;
66212;SDS011;53015;50.046;8.238;2023-02-15T07:35:26;24.98;;;11.32;;
66212;SDS011;53015;50.046;8.238;2023-02-15T07:37:51;25.30;;;12.20;;
66212;SDS011;53015;50.046;8.238;2023-02-15T07:40:18;26.63;;;11.45;;
66212;SDS011;53015;50.046;8.238;2023-02-15T07:42:43;23.20;;;10.77;;
66212;SDS011;53015;50.046;8.238;2023-02-15T07:45:09;24.52;;;11.57;;
66212;SDS011;53015;50.046;8.238;2023-02-15T07:47:34;22.25;;;10.13;;
66212;SDS011;53015;50.046;8.238;2023-02-15T07:50:00;21.48;;;10.63;;
66212;SDS011;53015;50.046;8.238;2023-02-15T07:52:25;21.45;;;10.40;;
66212;SDS011;53015;50.046;8.238;2023-02-15T07:54:51;23.27;;;11.20;;
66212;SDS011;53015;50.046;8.238;2023-02-15T07:57:17;20.65;;;9.80;;
66212;SDS011;53015;50.046;8.238;2023-02-15T07:59:42;20.20;;;10.07;;
66212;SDS011;53015;50.046;8.238;2023-02-15T08:02:08;21.88;;;10.38;;
66212;SDS011;53015;50.046;8.238;2023-02-15T08:04:35;20.65;;;9.50;;
66212;SDS011;53015;50.046;8.238;2023-02-15T08:07:00;21.45;;;9.60;;
66212;SDS011;53015;50.046;8.238;2023-02-15T08:09:26;19.33;;;9.90;;
66212;SDS011;53015;50.046;8.238;2023-02-15T08:11:51;20.10;;;10.60;;
66212;SDS011;53015;50.046;8.238;2023-02-15T08:14:18;22.98;;;9.95;;
66212;SDS011;53015;50.046;8.238;2023-02-15T08:16:44;20.42;;;9.93;;
66212;SDS011;53015;50.046;8.238;2023-02-15T08:19:11;23.35;;;10.85;;
66212;SDS011;53015;50.046;8.238;2023-02-15T08:21:39;25.95;;;10.73;;
66212;SDS011;53015;50.046;8.238;2023-02-15T08:24:06;22.40;;;10.27;;
66212;SDS011;53015;50.046;8.238;2023-02-15T08:26:33;20.17;;;10.00;;
66212;SDS011;53015;50.046;8.238;2023-02-15T08:28:59;20.25;;;9.57;;
66212;SDS011;53015;50.046;8.238;2023-02-15T08:31:26;19.02;;;10.30;;
66212;SDS011;53015;50.046;8.238;2023-02-15T08:33:52;20.35;;;10.40;;
66212;SDS011;53015;50.046;8.238;2023-02-15T08:36:19;18.23;;;9.68;;
66212;SDS011;53015;50.046;8.238;2023-02-15T08:38:47;20.58;;;10.00;;
66212;SDS011;53015;50.046;8.238;2023-02-15T08:41:13;17.83;;;9.48;;
66212;SDS011;53015;50.046;8.238;2023-02-15T08:43:40;20.80;;;10.38;;
66212;SDS011;53015;50.046;8.238;2023-02-15T08:46:07;20.50;;;10.10;;
66212;SDS011;53015;50.046;8.238;2023-02-15T08:48:34;21.17;;;10.30;;
66212;SDS011;53015;50.046;8.238;2023-02-15T08:51:04;20.88;;;10.55;;
66212;SDS011;53015;50.046;8.238;2023-02-15T08:53:31;23.13;;;10.57;;
66212;SDS011;53015;50.046;8.238;2023-02-15T08:55:56;20.02;;;9.25;;
66212;SDS011;53015;50.046;8.238;2023-02-15T08:58:22;20.95;;;9.77;;
66212;SDS011;53015;50.046;8.238;2023-02-15T09:00:48;23.38;;;10.98;;
66212;SDS011;53015;50.046;8.238;2023-02-15T09:03:13;21.45;;;9.75;;
66212;SDS011;53015;50.046;8.238;2023-02-15T09:05:39;23.70;;;10.32;;
66212;SDS011;53015;50.046;8.238;2023-02-15T09:08:05;25.20;;;10.48;;
66212;SDS011;53015;50.046;8.238;2023-02-15T09:10:30;19.95;;;9.57;;
66212;SDS011;53015;50.046;8.238;2023-02-15T09:12:56;19.55;;;9.43;;
66212;SDS011;53015;50.046;8.238;2023-02-15T09:15:21;20.35;;;10.10;;
66212;SDS011;53015;50.046;8.238;2023-02-15T09:17:47;21.85;;;10.02;;
66212;SDS011;53015;50.046;8.238;2023-02-15T09:20:12;22.13;;;10.20;;
66212;SDS011;53015;50.046;8.238;2023-02-15T09:22:38;22.75;;;9.25;;
66212;SDS011;53015;50.046;8.238;2023-02-15T09:25:04;20.70;;;9.30;;
66212;SDS011;53015;50.046;8.238;2023-02-15T09:27:30;21.80;;;10.13;;
66212;SDS011;53015;50.046;8.238;2023-02-15T09:29:55;25.17;;;10.23;;
66212;SDS011;53015;50.046;8.238;2023-02-15T09:32:21;20.83;;;10.13;;
66212;SDS011;53015;50.046;8.238;2023-02-15T09:34:46;23.63;;;10.48;;
66212;SDS011;53015;50.046;8.238;2023-02-15T09:37:12;24.15;;;11.18;;
66212;SDS011;53015;50.046;8.238;2023-02-15T09:39:42;22.58;;;10.07;;
66212;SDS011;53015;50.046;8.238;2023-02-15T09:45:30;21.98;;;10.13;;
66212;SDS011;53015;50.046;8.238;2023-02-15T09:48:12;23.67;;;10.63;;
66212;SDS011;53015;50.046;8.238;2023-02-15T09:50:54;20.98;;;9.85;;
66212;SDS011;53015;50.046;8.238;2023-02-15T09:53:38;21.75;;;10.00;;
66212;SDS011;53015;50.046;8.238;2023-02-15T09:56:14;22.13;;;10.05;;
66212;SDS011;53015;50.046;8.238;2023-02-15T09:58:46;21.90;;;10.93;;
66212;SDS011;53015;50.046;8.238;2023-02-15T10:01:20;24.88;;;11.35;;
66212;SDS011;53015;50.046;8.238;2023-02-15T10:03:56;18.13;;;9.43;;
66212;SDS011;53015;50.046;8.238;2023-02-15T10:06:32;19.02;;;9.82;;
66212;SDS011;53015;50.046;8.238;2023-02-15T10:09:12;23.58;;;10.48;;
66212;SDS011;53015;50.046;8.238;2023-02-15T10:11:56;20.08;;;9.88;;
66212;SDS011;53015;50.046;8.238;2023-02-15T10:14:39;25.08;;;10.57;;
66212;SDS011;53015;50.046;8.238;2023-02-15T10:17:24;20.50;;;9.45;;
66212;SDS011;53015;50.046;8.238;2023-02-15T10:20:00;21.73;;;10.50;;
66212;SDS011;53015;50.046;8.238;2023-02-15T10:22:36;24.13;;;10.07;;
66212;SDS011;53015;50.046;8.238;2023-02-15T10:25:16;21.35;;;10.07;;
66212;SDS011;53015;50.046;8.238;2023-02-15T10:27:51;22.58;;;9.98;;
66212;SDS011;53015;50.046;8.238;2023-02-15T10:30:17;22.90;;;10.25;;
66212;SDS011;53015;50.046;8.238;2023-02-15T10:32:55;20.55;;;9.77;;
66212;SDS011;53015;50.046;8.238;2023-02-15T10:35:25;19.48;;;9.27;;
66212;SDS011;53015;50.046;8.238;2023-02-15T10:38:03;20.30;;;9.93;;
66212;SDS011;53015;50.046;8.238;2023-02-15T10:40:36;19.98;;;9.52;;
66212;SDS011;53015;50.046;8.238;2023-02-15T10:45:51;21.80;;;9.02;;
66212;SDS011;53015;50.046;8.238;2023-02-15T10:48:36;23.25;;;10.82;;
66212;SDS011;53015;50.046;8.238;2023-02-15T10:51:19;21.92;;;10.02;;
66212;SDS011;53015;50.046;8.238;2023-02-15T10:53:57;23.42;;;10.88;;
66212;SDS011;53015;50.046;8.238;2023-02-15T10:56:34;27.52;;;11.55;;
66212;SDS011;53015;50.046;8.238;2023-02-15T10:59:07;26.85;;;11.98;;
66212;SDS011;53015;50.046;8.238;2023-02-15T11:01:50;22.52;;;11.10;;
66212;SDS011;53015;50.046;8.238;2023-02-15T11:04:34;26.50;;;11.93;;
66212;SDS011;53015;50.046;8.238;2023-02-15T11:07:11;22.73;;;10.05;;
66212;SDS011;53015;50.046;8.238;2023-02-15T11:09:42;22.05;;;10.45;;
66212;SDS011;53015;50.046;8.238;2023-02-15T11:12:11;20.48;;;10.10;;
66212;SDS011;53015;50.046;8.238;2023-02-15T11:14:41;19.77;;;10.20;;
66212;SDS011;53015;50.046;8.238;2023-02-15T11:17:12;21.52;;;10.43;;
66212;SDS011;53015;50.046;8.238;2023-02-15T11:19:41;21.73;;;10.15;;
66212;SDS011;53015;50.046;8.238;2023-02-15T11:24:40;16.95;;;8.98;;
66212;SDS011;53015;50.046;8.238;2023-02-15T11:27:15;21.80;;;10.30;;
66212;SDS011;53015;50.046;8.238;2023-02-15T11:29:48;18.10;;;9.60;;
66212;SDS011;53015;50.046;8.238;2023-02-15T11:32:20;21.92;;;10.75;;
66212;SDS011;53015;50.046;8.238;2023-02-15T11:34:49;18.60;;;10.50;;
66212;SDS011;53015;50.046;8.238;2023-02-15T11:37:18;19.27;;;10.25;;
66212;SDS011;53015;50.046;8.238;2023-02-15T11:39:50;24.33;;;10.88;;
66212;SDS011;53015;50.046;8.238;2023-02-15T11:42:16;19.25;;;9.98;;
66212;SDS011;53015;50.046;8.238;2023-02-15T11:44:48;20.90;;;11.18;;
66212;SDS011;53015;50.046;8.238;2023-02-15T11:47:22;22.70;;;10.60;;
66212;SDS011;53015;50.046;8.238;2023-02-15T11:49:47;23.40;;;10.80;;
66212;SDS011;53015;50.046;8.238;2023-02-15T11:52:14;21.42;;;10.25;;
66212;SDS011;53015;50.046;8.238;2023-02-15T11:54:42;23.30;;;10.95;;
66212;SDS011;53015;50.046;8.238;2023-02-15T11:57:11;20.88;;;11.30;;
66212;SDS011;53015;50.046;8.238;2023-02-15T11:59:43;20.85;;;10.93;;
66212;SDS011;53015;50.046;8.238;2023-02-15T12:02:15;21.13;;;11.27;;
66212;SDS011;53015;50.046;8.238;2023-02-15T12:04:43;19.05;;;10.55;;
66212;SDS011;53015;50.046;8.238;2023-02-15T12:07:13;21.13;;;10.52;;
66212;SDS011;53015;50.046;8.238;2023-02-15T12:09:45;20.60;;;11.02;;
66212;SDS011;53015;50.046;8.238;2023-02-15T12:12:22;23.90;;;11.13;;
66212;SDS011;53015;50.046;8.238;2023-02-15T12:14:50;23.17;;;11.77;;
66212;SDS011;53015;50.046;8.238;2023-02-15T12:17:16;20.95;;;11.73;;
66212;SDS011;53015;50.046;8.238;2023-02-15T12:19:43;23.58;;;11.15;;
66212;SDS011;53015;50.046;8.238;2023-02-15T12:22:17;20.83;;;10.90;;
66212;SDS011;53015;50.046;8.238;2023-02-15T12:24:46;24.42;;;12.13;;
66212;SDS011;53015;50.046;8.238;2023-02-15T12:27:14;25.83;;;13.02;;
66212;SDS011;53015;50.046;8.238;2023-02-15T12:29:41;26.40;;;13.70;;
66212;SDS011;53015;50.046;8.238;2023-02-15T12:32:11;29.23;;;13.55;;
66212;SDS011;53015;50.046;8.238;2023-02-15T12:34:43;27.92;;;14.57;;
66212;SDS011;53015;50.046;8.238;2023-02-15T12:37:10;28.40;;;13.65;;
66212;SDS011;53015;50.046;8.238;2023-02-15T12:39:50;26.83;;;13.35;;
66212;SDS011;53015;50.046;8.238;2023-02-15T12:42:17;28.98;;;13.10;;
66212;SDS011;53015;50.046;8.238;2023-02-15T12:44:52;29.95;;;14.23;;
66212;SDS011;53015;50.046;8.238;2023-02-15T12:47:20;26.23;;;13.50;;
66212;SDS011;53015;50.046;8.238;2023-02-15T12:50:03;26.13;;;12.43;;
66212;SDS011;53015;50.046;8.238;2023-02-15T12:52:31;22.85;;;11.93;;
66212;SDS011;53015;50.046;8.238;2023-02-15T12:54:56;21.05;;;11.57;;
66212;SDS011;53015;50.046;8.238;2023-02-15T12:57:36;23.92;;;12.10;;
66212;SDS011;53015;50.046;8.238;2023-02-15T13:00:04;27.10;;;12.88;;
66212;SDS011;53015;50.046;8.238;2023-02-15T13:02:46;25.27;;;12.10;;
66212;SDS011;53015;50.046;8.238;2023-02-15T13:05:16;35.67;;;13.70;;
66212;SDS011;53015;50.046;8.238;2023-02-15T13:07:45;25.00;;;13.57;;
66212;SDS011;53015;50.046;8.238;2023-02-15T13:10:19;23.23;;;12.35;;
66212;SDS011;53015;50.046;8.238;2023-02-15T13:12:50;27.92;;;12.73;;
66212;SDS011;53015;50.046;8.238;2023-02-15T13:15:22;24.27;;;12.35;;
66212;SDS011;53015;50.046;8.238;2023-02-15T13:17:51;20.75;;;11.75;;
66212;SDS011;53015;50.046;8.238;2023-02-15T13:20:18;20.50;;;10.60;;
66212;SDS011;53015;50.046;8.238;2023-02-15T13:22:46;18.60;;;10.57;;
66212;SDS011;53015;50.046;8.238;2023-02-15T13:25:13;21.83;;;11.00;;
66212;SDS011;53015;50.046;8.238;2023-02-15T13:27:43;20.75;;;10.77;;
66212;SDS011;53015;50.046;8.238;2023-02-15T13:30:14;20.23;;;10.70;;
66212;SDS011;53015;50.046;8.238;2023-02-15T13:32:45;21.05;;;10.55;;
66212;SDS011;53015;50.046;8.238;2023-02-15T13:35:15;18.42;;;10.25;;
66212;SDS011;53015;50.046;8.238;2023-02-15T13:37:54;19.65;;;10.88;;
66212;SDS011;53015;50.046;8.238;2023-02-15T13:40:32;20.63;;;10.70;;
66212;SDS011;53015;50.046;8.238;2023-02-15T13:43:02;18.25;;;10.88;;
66212;SDS011;53015;50.046;8.238;2023-02-15T13:45:38;19.33;;;10.77;;
66212;SDS011;53015;50.046;8.238;2023-02-15T13:48:15;21.98;;;11.95;;
66212;SDS011;53015;50.046;8.238;2023-02-15T13:50:53;24.50;;;12.52;;
66212;SDS011;53015;50.046;8.238;2023-02-15T13:53:34;23.40;;;13.00;;
66212;SDS011;53015;50.046;8.238;2023-02-15T13:56:11;28.15;;;13.45;;
66212;SDS011;53015;50.046;8.238;2023-02-15T13:58:56;27.73;;;14.13;;
66212;SDS011;53015;50.046;8.238;2023-02-15T14:01:29;27.17;;;13.40;;
66212;SDS011;53015;50.046;8.238;2023-02-15T14:04:06;23.67;;;12.35;;
66212;SDS011;53015;50.046;8.238;2023-02-15T14:06:49;21.52;;;11.43;;
66212;SDS011;53015;50.046;8.238;2023-02-15T14:09:36;22.00;;;12.88;;
66212;SDS011;53015;50.046;8.238;2023-02-15T14:12:14;21.38;;;12.45;;
66212;SDS011;53015;50.046;8.238;2023-02-15T14:17:48;23.92;;;12.63;;
66212;SDS011;53015;50.046;8.238;2023-02-15T14:20:29;17.08;;;10.73;;
66212;SDS011;53015;50.046;8.238;2023-02-15T14:23:05;18.52;;;10.48;;
66212;SDS011;53015;50.046;8.238;2023-02-15T14:25:38;24.40;;;11.30;;
66212;SDS011;53015;50.046;8.238;2023-02-15T14:28:08;22.60;;;11.60;;
66212;SDS011;53015;50.046;8.238;2023-02-15T14:30:37;20.75;;;12.23;;
66212;SDS011;53015;50.046;8.238;2023-02-15T14:33:06;27.05;;;12.52;;
66212;SDS011;53015;50.046;8.238;2023-02-15T14:35:34;24.85;;;12.38;;
66212;SDS011;53015;50.046;8.238;2023-02-15T14:38:02;19.90;;;12.40;;
66212;SDS011;53015;50.046;8.238;2023-02-15T14:40:34;23.20;;;12.13;;
66212;SDS011;53015;50.046;8.238;2023-02-15T14:43:08;25.38;;;11.88;;
66212;SDS011;53015;50.046;8.238;2023-02-15T14:45:40;22.38;;;12.27;;
66212;SDS011;53015;50.046;8.238;2023-02-15T14:48:21;27.20;;;13.30;;
66212;SDS011;53015;50.046;8.238;2023-02-15T14:50:53;22.92;;;12.25;;
66212;SDS011;53015;50.046;8.238;2023-02-15T14:56:12;22.33;;;12.70;;